Pagrindinis puslapis
METAR-TAF:

METAR-TAF

Oro uostai :

Pago Pago, United States Minor Outlying Islands

platuma: 14-20S, ilguma: 170-43W, Aukštis: 3 m

Dabartinis oras

Ataskaita buvo paskelbta 1 valandą ir 1 minutes, ne 21:50 UTC
Vėjas 19 kt iš Rytų/Pietryčių
Temperatūra 30°C
Drėgmė 79%
Slėgis 1017 hPa
Matomumas: 19.3 km
Išsisklaidę debesys ne aukštis 1800 ft
Išsisklaidę debesys ne aukštis 4000 ft
Su prošvaistėmis ne aukštis 12000 ft

METAR: NSTU 302150Z 11019KT 12SM SCT018 SCT040 BKN120 30/26 A3002 RMK SLP166 T03030255

Laikas: 11:51 (22:51 UTC)

Prognozė

Ataskaita buvo paskelbta 5 valandos ir 14 minutes, ne 17:37 UTC
Prognozė galioja nuo 30 metu 18 UTC su 31 metu 18 UTC
Vėjas 10 kt iš Rytų/Pietryčių
Matomumas: 10 km
Išsisklaidę debesys ne aukštis 2000 ft
Išsisklaidę debesys ne aukštis 4000 ft
Su prošvaistėmis ne aukštis 10000 ft
Liūtis kaimynystėje

TAF: NSTU 301737Z 3018/3118 11010KT P6SM VCSH SCT020 SCT040 BKN100

Orai ataskaitas ir orų prognozės (METAR, TAF).

turimą stotys yra geltonos ir raudonos taškus žemėlapyje.

Perkelti pele per norėdami pamatyti stoties vardą.

Tada spustelėkite, norėdami matyti oro stebėjimo ir prognozės.

Norėdami pakeisti žemėlapį: spustelėkite ant žalios mygtukų su juodo kryžiaus žemyn,; žalią mygtuką su brūkšneliu, jei norite nutolinti; arba žalių rodyklių gretimoms žemėlapius.


METAR-TAF: